createdAt,value
2018-07-05T00:00:26.221Z,54.3
2018-07-05T00:01:15.748Z,54.2
2018-07-05T00:02:06.616Z,54.3
2018-07-05T00:02:56.398Z,54.2
2018-07-05T00:03:45.615Z,54.2
2018-07-05T00:04:36.275Z,54.2
2018-07-05T00:05:25.767Z,54.2
2018-07-05T00:06:16.629Z,54.2
2018-07-05T00:07:07.032Z,54.2
2018-07-05T00:07:56.225Z,54.1
2018-07-05T00:08:45.445Z,54.1
2018-07-05T00:09:36.337Z,54.2
2018-07-05T00:10:27.163Z,54.1
2018-07-05T00:11:17.110Z,54.1
2018-07-05T00:12:07.130Z,54.1
2018-07-05T00:12:57.470Z,54.1
2018-07-05T00:13:46.410Z,54.1
2018-07-05T00:14:36.495Z,54.1
2018-07-05T00:15:27.367Z,54.1
2018-07-05T00:16:17.735Z,54.1
2018-07-05T00:17:07.309Z,54.1
2018-07-05T00:17:57.616Z,54.1
2018-07-05T00:18:47.041Z,54.1
2018-07-05T00:19:38.002Z,54.1
2018-07-05T00:20:27.743Z,54.1
2018-07-05T00:21:17.540Z,54.1
2018-07-05T00:22:07.904Z,54.1
2018-07-05T00:22:57.983Z,54.1
2018-07-05T00:23:47.456Z,54
2018-07-05T00:24:37.784Z,54
2018-07-05T00:25:27.871Z,54
2018-07-05T00:26:18.482Z,54
2018-07-05T00:27:07.995Z,54
2018-07-05T00:27:58.599Z,53.9
2018-07-05T00:28:48.666Z,54
2018-07-05T00:29:38.467Z,53.9
2018-07-05T00:30:28.543Z,53.9
2018-07-05T00:31:18.594Z,53.9
2018-07-05T00:32:08.358Z,53.9
2018-07-05T00:32:58.723Z,53.9
2018-07-05T00:33:47.917Z,53.9
2018-07-05T00:34:39.086Z,53.9
2018-07-05T00:35:28.889Z,53.9
2018-07-05T00:36:19.225Z,53.9
2018-07-05T00:37:09.048Z,53.9
2018-07-05T00:37:59.324Z,53.9
2018-07-05T00:38:49.374Z,53.9
2018-07-05T00:39:38.876Z,53.9
2018-07-05T00:40:28.982Z,53.9
2018-07-05T00:41:19.026Z,53.9
2018-07-05T00:42:09.343Z,53.9
2018-07-05T00:42:59.444Z,53.8
2018-07-05T00:43:49.236Z,53.8
2018-07-05T00:44:39.571Z,53.8
2018-07-05T00:45:29.682Z,53.8
2018-07-05T00:46:19.406Z,53.8
2018-07-05T00:47:10.073Z,53.8
2018-07-05T00:48:00.107Z,53.8
2018-07-05T00:48:49.394Z,53.8
2018-07-05T00:49:40.000Z,53.8
2018-07-05T00:50:30.020Z,53.8
2018-07-05T00:51:20.333Z,53.8
2018-07-05T00:52:10.148Z,53.8
2018-07-05T00:53:00.225Z,53.8
2018-07-05T00:53:50.288Z,53.8
2018-07-05T00:54:40.098Z,53.8
2018-07-05T00:55:30.200Z,53.8
2018-07-05T00:56:20.481Z,53.8
2018-07-05T00:57:10.549Z,53.7
2018-07-05T00:58:00.913Z,53.7
2018-07-05T00:58:50.675Z,53.7
2018-07-05T00:59:41.017Z,53.7
2018-07-05T01:00:30.567Z,53.7
2018-07-05T01:01:20.356Z,53.7
2018-07-05T01:02:10.934Z,53.7
2018-07-05T01:03:01.257Z,53.6
2018-07-05T01:03:51.326Z,53.7
2018-07-05T01:04:41.374Z,53.6
2018-07-05T01:05:30.937Z,53.6
2018-07-05T01:06:21.021Z,53.6
2018-07-05T01:07:11.044Z,53.6
2018-07-05T01:08:01.411Z,53.6
2018-07-05T01:08:50.883Z,53.6
2018-07-05T01:09:41.813Z,53.6
2018-07-05T01:10:31.648Z,53.6
2018-07-05T01:11:21.367Z,53.6
2018-07-05T01:12:11.988Z,53.6
2018-07-05T01:13:02.082Z,53.6
2018-07-05T01:13:51.813Z,53.6
2018-07-05T01:14:41.641Z,53.6
2018-07-05T01:15:32.099Z,53.6
2018-07-05T01:16:22.014Z,53.6
2018-07-05T01:17:12.120Z,53.5
2018-07-05T01:18:01.652Z,53.5
2018-07-05T01:18:51.975Z,53.5
2018-07-05T01:19:42.027Z,53.5
2018-07-05T01:20:32.071Z,53.5
2018-07-05T01:21:22.480Z,53.5
2018-07-05T01:22:12.483Z,53.5
2018-07-05T01:23:02.858Z,53.5
2018-07-05T01:23:52.340Z,53.5
2018-07-05T01:24:42.945Z,53.4
2018-07-05T01:25:32.520Z,53.4
2018-07-05T01:26:23.100Z,53.4
2018-07-05T01:27:12.581Z,53.4
2018-07-05T01:28:02.981Z,53.4
2018-07-05T01:28:53.290Z,53.4
2018-07-05T01:29:43.349Z,53.4
2018-07-05T01:30:32.594Z,53.4
2018-07-05T01:31:22.934Z,53.4
2018-07-05T01:32:13.528Z,53.4
2018-07-05T01:33:03.342Z,53.4
2018-07-05T01:33:53.106Z,53.4
2018-07-05T01:34:42.917Z,53.4
2018-07-05T01:35:33.511Z,53.4
2018-07-05T01:36:23.665Z,53.4
2018-07-05T01:37:13.117Z,53.4
2018-07-05T01:38:04.017Z,53.4
2018-07-05T01:38:53.785Z,53.3
2018-07-05T01:39:43.844Z,53.3
2018-07-05T01:40:34.210Z,53.3
2018-07-05T01:41:24.386Z,53.3
2018-07-05T01:42:14.042Z,53.3
2018-07-05T01:43:04.119Z,53.3
2018-07-05T01:43:53.924Z,53.3
2018-07-05T01:44:43.979Z,53.3
2018-07-05T01:45:34.647Z,53.3
2018-07-05T01:46:24.688Z,53.3
2018-07-05T01:47:14.676Z,53.3
2018-07-05T01:48:04.839Z,53.3
2018-07-05T01:48:54.811Z,53.3
2018-07-05T01:49:44.614Z,53.3
2018-07-05T01:50:34.980Z,53.3
2018-07-05T01:51:24.497Z,53.3
2018-07-05T01:52:15.088Z,53.2
2018-07-05T01:53:04.904Z,53.3
2018-07-05T01:53:54.671Z,53.2
2018-07-05T01:54:45.027Z,53.2
2018-07-05T01:55:35.365Z,53.2
2018-07-05T01:56:25.418Z,53.2
2018-07-05T01:57:15.625Z,53.2
2018-07-05T01:58:05.608Z,53.2
2018-07-05T01:58:55.353Z,53.1
2018-07-05T01:59:45.438Z,53.2
2018-07-05T02:00:35.519Z,53.1
2018-07-05T02:01:25.288Z,53.1
2018-07-05T02:02:15.056Z,53.1
2018-07-05T02:03:05.406Z,53.1
2018-07-05T02:03:55.724Z,53.1
2018-07-05T02:04:45.788Z,53.1
2018-07-05T02:05:35.600Z,53.1
2018-07-05T02:06:25.944Z,53.1
2018-07-05T02:07:16.283Z,53.1
2018-07-05T02:08:06.097Z,53.1
2018-07-05T02:08:56.409Z,53.1
2018-07-05T02:09:46.571Z,53.1
2018-07-05T02:10:36.394Z,53.1
2018-07-05T02:11:26.773Z,53.1
2018-07-05T02:12:16.778Z,53.1
2018-07-05T02:13:06.248Z,53
2018-07-05T02:13:56.879Z,53
2018-07-05T02:14:46.376Z,53
2018-07-05T02:15:37.019Z,53
2018-07-05T02:16:27.045Z,53
2018-07-05T02:17:16.274Z,53
2018-07-05T02:18:07.208Z,53
2018-07-05T02:18:57.203Z,53
2018-07-05T02:19:47.316Z,53
2018-07-05T02:20:37.339Z,52.9
2018-07-05T02:21:27.429Z,52.9
2018-07-05T02:22:16.909Z,52.9
2018-07-05T02:23:07.504Z,52.9
2018-07-05T02:23:57.296Z,52.9
2018-07-05T02:24:47.610Z,52.9
2018-07-05T02:25:37.699Z,52.9
2018-07-05T02:26:27.189Z,52.9
2018-07-05T02:27:17.904Z,52.9
2018-07-05T02:28:07.633Z,52.9
2018-07-05T02:28:57.670Z,52.9
2018-07-05T02:29:47.726Z,52.9
2018-07-05T02:30:38.110Z,52.9
2018-07-05T02:31:27.916Z,52.9
2018-07-05T02:32:18.234Z,52.9
2018-07-05T02:33:08.018Z,52.8
2018-07-05T02:33:58.096Z,52.9
2018-07-05T02:34:48.466Z,52.9
2018-07-05T02:35:38.230Z,52.8
2018-07-05T02:36:28.581Z,52.8
2018-07-05T02:37:18.638Z,52.8
2018-07-05T02:38:08.361Z,52.8
2018-07-05T02:38:58.463Z,52.8
2018-07-05T02:39:48.817Z,52.8
2018-07-05T02:40:38.623Z,52.8
2018-07-05T02:41:28.968Z,52.8
2018-07-05T02:42:18.763Z,52.8
2018-07-05T02:43:08.594Z,52.8
2018-07-05T02:43:58.638Z,52.8
2018-07-05T02:44:48.936Z,52.8
2018-07-05T02:45:38.713Z,52.8
2018-07-05T02:46:29.357Z,52.8
2018-07-05T02:47:19.466Z,52.8
2018-07-05T02:48:09.215Z,52.7
2018-07-05T02:48:58.427Z,52.8
2018-07-05T02:49:49.566Z,52.8
2018-07-05T02:50:39.380Z,52.7
2018-07-05T02:51:29.725Z,52.7
2018-07-05T02:52:19.833Z,52.7
2018-07-05T02:53:09.847Z,52.7
2018-07-05T02:53:59.975Z,52.7
2018-07-05T02:54:49.992Z,52.7
2018-07-05T02:55:40.042Z,52.7
2018-07-05T02:56:29.818Z,52.7
2018-07-05T02:57:19.907Z,52.6
2018-07-05T02:58:10.237Z,52.6
2018-07-05T02:59:00.029Z,52.6
2018-07-05T02:59:49.813Z,52.6
2018-07-05T03:00:39.895Z,52.6
2018-07-05T03:01:29.978Z,52.6
2018-07-05T03:02:20.086Z,52.6
2018-07-05T03:03:10.402Z,52.6
2018-07-05T03:04:00.444Z,52.6
2018-07-05T03:04:50.259Z,52.6
2018-07-05T03:05:40.859Z,52.6
2018-07-05T03:06:30.640Z,52.6
2018-07-05T03:07:20.132Z,52.6
2018-07-05T03:08:10.487Z,52.6
2018-07-05T03:09:00.532Z,52.6
2018-07-05T03:09:50.922Z,52.6
2018-07-05T03:10:40.972Z,52.6
2018-07-05T03:11:31.317Z,52.5
2018-07-05T03:12:21.337Z,52.5
2018-07-05T03:13:11.443Z,52.5
2018-07-05T03:14:00.904Z,52.5
2018-07-05T03:14:51.269Z,52.5
2018-07-05T03:15:41.341Z,52.5
2018-07-05T03:16:31.704Z,52.5
2018-07-05T03:17:21.731Z,52.4
2018-07-05T03:18:11.648Z,52.5
2018-07-05T03:19:01.967Z,52.4
2018-07-05T03:19:51.961Z,52.5
2018-07-05T03:20:41.481Z,52.4
2018-07-05T03:21:31.799Z,52.4
2018-07-05T03:22:22.138Z,52.4
2018-07-05T03:23:11.991Z,52.4
2018-07-05T03:24:01.726Z,52.4
2018-07-05T03:24:52.421Z,52.4
2018-07-05T03:25:42.514Z,52.4
2018-07-05T03:32:22.897Z,52.3
2018-07-05T03:33:12.971Z,52.3
2018-07-05T03:34:02.757Z,52.3
2018-07-05T03:34:52.579Z,52.3
2018-07-05T03:35:42.915Z,52.3
2018-07-05T03:36:33.238Z,52.3
2018-07-05T03:37:22.434Z,52.3
2018-07-05T03:38:13.092Z,52.3
2018-07-05T03:39:03.406Z,52.3
2018-07-05T03:39:53.197Z,52.3
2018-07-05T03:40:43.292Z,52.3
2018-07-05T03:41:33.108Z,52.3
2018-07-05T03:42:23.412Z,52.3
2018-07-05T03:43:13.472Z,52.3
2018-07-05T03:44:03.537Z,52.3
2018-07-05T03:44:53.896Z,52.3
2018-07-05T03:45:43.391Z,52.3
2018-07-05T03:46:33.731Z,52.3
2018-07-05T03:47:23.494Z,52.2
2018-07-05T03:48:13.549Z,52.2
2018-07-05T03:49:04.189Z,52.2
2018-07-05T03:49:54.258Z,52.2
2018-07-05T03:50:44.344Z,52.2
2018-07-05T03:51:33.537Z,52.2
2018-07-05T03:52:24.453Z,52.2
2018-07-05T03:53:14.482Z,52.2
2018-07-05T03:54:04.580Z,52.1
2018-07-05T03:54:54.325Z,52.1
2018-07-05T03:55:44.393Z,52.2
2018-07-05T03:56:34.469Z,52.1
2018-07-05T03:57:24.518Z,52.1
2018-07-05T03:58:14.862Z,52.1
2018-07-05T03:59:04.986Z,52.1
2018-07-05T03:59:55.012Z,52.1
2018-07-05T04:00:44.774Z,52.1
2018-07-05T04:01:34.847Z,52.1
2018-07-05T04:02:24.987Z,52.1
2018-07-05T04:03:15.253Z,52.1
2018-07-05T04:04:05.322Z,52.1
2018-07-05T04:04:55.135Z,52.1
2018-07-05T04:05:45.518Z,52.1
2018-07-05T04:06:35.578Z,52.1
2018-07-05T04:07:25.656Z,52.1
2018-07-05T04:08:15.682Z,52.1
2018-07-05T04:09:05.713Z,52.1
2018-07-05T04:09:55.809Z,52
2018-07-05T04:10:45.896Z,52
2018-07-05T04:11:35.105Z,52
2018-07-05T04:12:25.508Z,52
2018-07-05T04:13:15.534Z,52
2018-07-05T04:14:05.351Z,52
2018-07-05T04:14:55.467Z,52
2018-07-05T04:15:44.850Z,52
2018-07-05T04:16:35.602Z,52
2018-07-05T04:17:25.329Z,52
2018-07-05T04:19:05.092Z,52
2018-07-05T04:24:55.978Z,51.9
2018-07-05T04:25:45.980Z,51.9
2018-07-05T04:26:36.333Z,51.9
2018-07-05T04:27:25.032Z,51.9
2018-07-05T04:28:16.148Z,51.9
2018-07-05T04:29:05.426Z,51.9
2018-07-05T04:29:55.675Z,51.9
2018-07-05T04:30:46.020Z,51.9
2018-07-05T04:31:36.366Z,51.9
2018-07-05T04:32:26.750Z,51.9
2018-07-05T04:33:17.144Z,51.8
2018-07-05T04:34:06.725Z,51.8
2018-07-05T04:34:56.661Z,51.8
2018-07-05T04:35:47.148Z,51.8
2018-07-05T04:36:36.855Z,51.8
2018-07-05T04:37:26.853Z,51.8
2018-07-05T04:38:16.765Z,51.8
2018-07-05T04:39:06.992Z,51.8
2018-07-05T04:39:56.657Z,51.8
2018-07-05T04:40:46.689Z,51.8
2018-07-05T04:41:36.552Z,51.8
2018-07-05T04:42:27.561Z,51.8
2018-07-05T04:43:16.921Z,51.8
2018-07-05T04:44:06.919Z,51.8
2018-07-05T04:44:57.514Z,51.7
2018-07-05T04:45:47.638Z,51.8
2018-07-05T04:46:37.906Z,51.8
2018-07-05T04:47:27.397Z,51.7
2018-07-05T04:48:17.520Z,51.7
2018-07-05T04:49:07.562Z,51.7
2018-07-05T04:49:58.122Z,51.7
2018-07-05T04:50:48.180Z,51.7
2018-07-05T04:51:37.786Z,51.7
2018-07-05T04:52:27.809Z,51.7
2018-07-05T04:53:18.979Z,51.7
2018-07-05T04:54:08.216Z,51.7
2018-07-05T04:54:58.589Z,51.6
2018-07-05T04:55:48.240Z,51.7
2018-07-05T04:56:39.048Z,51.6
2018-07-05T04:57:28.471Z,51.6
2018-07-05T04:58:18.436Z,51.6
2018-07-05T04:59:08.614Z,51.6
2018-07-05T04:59:58.893Z,51.6
2018-07-05T05:00:48.843Z,51.6
2018-07-05T05:01:38.943Z,51.6
2018-07-05T05:02:30.228Z,51.6
2018-07-05T05:03:19.950Z,51.6
2018-07-05T05:04:09.999Z,51.6
2018-07-05T05:04:59.329Z,51.6
2018-07-05T05:05:50.139Z,51.6
2018-07-05T05:06:39.617Z,51.6
2018-07-05T05:07:29.998Z,51.6
2018-07-05T05:08:20.032Z,51.6
2018-07-05T05:09:10.121Z,51.6
2018-07-05T05:09:59.615Z,51.6
2018-07-05T05:10:50.227Z,51.6
2018-07-05T05:11:40.081Z,51.5
2018-07-05T05:12:30.147Z,51.5
2018-07-05T05:13:20.438Z,51.5
2018-07-05T05:14:10.500Z,51.5
2018-07-05T05:15:01.376Z,51.5
2018-07-05T05:15:50.129Z,51.5
2018-07-05T05:16:40.709Z,51.5
2018-07-05T05:17:31.040Z,51.5
2018-07-05T05:18:20.812Z,51.5
2018-07-05T05:19:11.196Z,51.4
2018-07-05T05:20:00.710Z,51.4
2018-07-05T05:20:50.997Z,51.4
2018-07-05T05:21:40.857Z,51.4
2018-07-05T05:22:30.663Z,51.4
2018-07-05T05:23:20.471Z,51.4
2018-07-05T05:24:11.107Z,51.4
2018-07-05T05:25:00.591Z,51.4
2018-07-05T05:25:51.437Z,51.4
2018-07-05T05:26:41.503Z,51.4
2018-07-05T05:27:31.590Z,51.4
2018-07-05T05:28:21.034Z,51.4
2018-07-05T05:29:11.709Z,51.4
2018-07-05T05:30:02.016Z,51.4
2018-07-05T05:30:51.551Z,51.4
2018-07-05T05:31:41.850Z,51.4
2018-07-05T05:32:32.192Z,51.4
2018-07-05T05:33:21.435Z,51.4
2018-07-05T05:34:12.044Z,51.4
2018-07-05T05:35:01.843Z,51.3
2018-07-05T05:35:52.183Z,51.3
2018-07-05T05:36:42.532Z,51.3
2018-07-05T05:37:32.304Z,51.3
2018-07-05T05:38:21.905Z,51.3
2018-07-05T05:39:11.992Z,51.3
2018-07-05T05:40:02.524Z,51.3
2018-07-05T05:40:52.096Z,51.3
2018-07-05T05:41:42.142Z,51.3
2018-07-05T05:42:32.715Z,51.3
2018-07-05T05:43:23.096Z,51.3
2018-07-05T05:44:12.701Z,51.3
2018-07-05T05:45:02.667Z,51.3
2018-07-05T05:45:52.973Z,51.3
2018-07-05T05:46:43.035Z,51.3
2018-07-05T05:47:33.106Z,51.3
2018-07-05T05:48:23.460Z,51.2
2018-07-05T05:49:13.460Z,51.2
2018-07-05T05:50:03.259Z,51.3
2018-07-05T05:50:53.616Z,51.2
2018-07-05T05:51:43.142Z,51.2
2018-07-05T05:52:33.737Z,51.2
2018-07-05T05:53:23.807Z,51.2
2018-07-05T05:54:13.591Z,51.2
2018-07-05T05:55:03.879Z,51.2
2018-07-05T05:55:54.010Z,51.1
2018-07-05T05:56:44.073Z,51.2
2018-07-05T05:57:33.577Z,51.1
2018-07-05T05:58:24.178Z,51.2
2018-07-05T05:59:13.968Z,51.1
2018-07-05T06:00:03.757Z,51.1
2018-07-05T06:00:54.138Z,51.1
2018-07-05T06:01:44.277Z,51.1
2018-07-05T06:02:34.501Z,51.1
2018-07-05T06:03:23.192Z,51.1
2018-07-05T06:04:14.129Z,51.1
2018-07-05T06:05:04.719Z,51.1
2018-07-05T06:05:54.227Z,51.1
2018-07-05T06:06:44.879Z,51.1
2018-07-05T06:07:34.622Z,51.1
2018-07-05T06:08:24.705Z,51.1
2018-07-05T06:09:14.504Z,51.1
2018-07-05T06:10:05.324Z,51.1
2018-07-05T06:10:54.607Z,51.1
2018-07-05T06:11:44.955Z,51.1
2018-07-05T06:12:35.000Z,51.1
2018-07-05T06:13:25.074Z,51
2018-07-05T06:14:14.900Z,51
2018-07-05T06:15:05.225Z,51
2018-07-05T06:15:55.292Z,51
2018-07-05T06:16:45.345Z,51
2018-07-05T06:17:35.465Z,51
2018-07-05T06:18:24.914Z,51
2018-07-05T06:19:15.632Z,51
2018-07-05T06:20:05.857Z,51
2018-07-05T06:20:55.623Z,51
2018-07-05T06:21:46.011Z,50.9
2018-07-05T06:22:36.039Z,50.9
2018-07-05T06:23:25.823Z,50.9
2018-07-05T06:24:16.214Z,50.9
2018-07-05T06:25:06.262Z,50.9
2018-07-05T06:25:56.293Z,50.9
2018-07-05T06:26:46.075Z,50.9
2018-07-05T06:27:36.427Z,50.9
2018-07-05T06:28:26.502Z,50.9
2018-07-05T06:29:16.285Z,50.9
2018-07-05T06:30:06.089Z,50.9
2018-07-05T06:30:56.148Z,50.9
2018-07-05T06:31:46.789Z,50.9
2018-07-05T06:32:36.860Z,50.9
2018-07-05T06:33:26.636Z,50.9
2018-07-05T06:34:17.179Z,50.9
2018-07-05T06:35:07.142Z,50.9
2018-07-05T06:35:57.141Z,50.9
2018-07-05T06:36:46.919Z,50.8
2018-07-05T06:37:36.739Z,50.9
2018-07-05T06:38:27.035Z,50.8
2018-07-05T06:39:16.917Z,50.8
2018-07-05T06:40:07.218Z,50.8
2018-07-05T06:40:57.003Z,50.8
2018-07-05T06:41:47.537Z,50.8
2018-07-05T06:42:37.379Z,50.8
2018-07-05T06:43:27.498Z,50.8
2018-07-05T06:44:17.535Z,50.8
2018-07-05T06:45:07.595Z,50.8
2018-07-05T06:45:57.356Z,50.8
2018-07-05T06:46:47.493Z,50.8
2018-07-05T06:47:37.999Z,50.8
2018-07-05T06:48:27.852Z,50.8
2018-07-05T06:49:17.701Z,50.8
2018-07-05T06:50:07.700Z,50.8
2018-07-05T06:50:57.741Z,50.8
2018-07-05T06:51:48.092Z,50.8
2018-07-05T06:52:37.589Z,50.8
2018-07-05T06:53:28.033Z,50.7
2018-07-05T06:54:17.251Z,50.7
2018-07-05T06:55:08.346Z,50.7
2018-07-05T06:55:58.396Z,50.7
2018-07-05T06:56:48.988Z,50.7
2018-07-05T06:57:38.909Z,50.8
2018-07-05T06:58:28.872Z,50.8
2018-07-05T06:59:19.424Z,50.6
2018-07-05T07:00:08.460Z,50.4
2018-07-05T07:00:58.301Z,50.3
2018-07-05T07:01:49.112Z,50.2
2018-07-05T07:02:38.933Z,50.1
2018-07-05T07:03:28.386Z,50.1
2018-07-05T07:04:19.331Z,50.1
2018-07-05T07:05:08.795Z,50.1
2018-07-05T07:05:59.153Z,50.1
2018-07-05T07:06:49.511Z,50.1
2018-07-05T07:07:39.059Z,50
2018-07-05T07:08:29.316Z,50.1
2018-07-05T07:09:19.695Z,50
2018-07-05T07:10:09.535Z,50
2018-07-05T07:10:59.540Z,50
2018-07-05T07:11:49.848Z,50
2018-07-05T07:12:39.415Z,50
2018-07-05T07:13:29.715Z,50
2018-07-05T07:14:19.286Z,49.9
2018-07-05T07:15:09.887Z,49.9
2018-07-05T07:16:00.226Z,49.9
2018-07-05T07:16:50.284Z,49.9
2018-07-05T07:17:39.767Z,49.9
2018-07-05T07:18:29.854Z,49.9
2018-07-05T07:19:20.546Z,49.9
2018-07-05T07:20:10.319Z,49.9
2018-07-05T07:21:00.048Z,49.9
2018-07-05T07:21:50.400Z,49.9
2018-07-05T07:22:40.448Z,49.9
2018-07-05T07:23:30.800Z,49.9
2018-07-05T07:24:20.636Z,49.9
2018-07-05T07:25:10.922Z,49.9
2018-07-05T07:26:00.722Z,49.9
2018-07-05T07:26:51.091Z,49.8
2018-07-05T07:27:40.063Z,49.8
2018-07-05T07:28:30.963Z,49.8
2018-07-05T07:29:21.277Z,49.8
2018-07-05T07:30:10.791Z,49.8
2018-07-05T07:31:00.266Z,49.8
2018-07-05T07:31:52.608Z,49.9
2018-07-05T07:32:41.294Z,49.9
2018-07-05T07:33:31.114Z,49.9
2018-07-05T07:34:21.101Z,50
2018-07-05T07:35:11.536Z,50
2018-07-05T07:36:01.219Z,50.1
2018-07-05T07:36:51.619Z,50.1
2018-07-05T07:37:42.313Z,50.1
2018-07-05T07:38:32.002Z,50.2
2018-07-05T07:39:21.475Z,50.3
2018-07-05T07:40:11.614Z,50.3
2018-07-05T07:41:01.925Z,50.3
2018-07-05T07:41:52.221Z,50.4
2018-07-05T07:42:41.763Z,50.4
2018-07-05T07:43:31.581Z,50.5
2018-07-05T07:44:21.620Z,50.6
2018-07-05T07:45:11.967Z,50.6
2018-07-05T07:46:02.623Z,50.6
2018-07-05T07:46:51.972Z,50.7
2018-07-05T07:47:42.168Z,50.8
2018-07-05T07:48:32.770Z,50.8
2018-07-05T07:49:22.273Z,50.9
2018-07-05T07:50:12.907Z,50.9
2018-07-05T07:51:02.715Z,50.9
2018-07-05T07:51:53.033Z,51
2018-07-05T07:52:42.827Z,51.1
2018-07-05T07:53:33.160Z,51.1
2018-07-05T07:54:23.220Z,51.2
2018-07-05T07:55:12.760Z,51.3
2018-07-05T07:56:03.359Z,51.3
2018-07-05T07:56:53.147Z,51.4
2018-07-05T07:57:43.471Z,51.4
2018-07-05T07:58:33.009Z,51.4
2018-07-05T07:59:23.423Z,51.5
2018-07-05T08:00:12.583Z,51.6
2018-07-05T08:01:03.199Z,51.6
2018-07-05T08:01:53.531Z,51.7
2018-07-05T08:02:43.375Z,51.8
2018-07-05T08:03:33.936Z,51.8
2018-07-05T08:04:23.989Z,51.9
2018-07-05T08:06:03.297Z,52
2018-07-05T08:06:53.931Z,52.1
2018-07-05T08:07:44.328Z,52.1
2018-07-05T08:08:34.347Z,52.2
2018-07-05T08:09:24.409Z,52.3
2018-07-05T08:10:14.224Z,52.3
2018-07-05T08:11:53.778Z,52.4
2018-07-05T08:12:44.684Z,52.5
2018-07-05T08:13:34.741Z,52.6
2018-07-05T08:14:24.275Z,52.6
2018-07-05T08:15:14.487Z,52.7
2018-07-05T08:16:04.469Z,52.8
2018-07-05T08:16:54.749Z,52.8
2018-07-05T08:17:45.080Z,52.9
2018-07-05T08:18:35.141Z,52.9
2018-07-05T08:19:24.926Z,53
2018-07-05T08:20:15.273Z,53.1
2018-07-05T08:21:05.081Z,53.1
2018-07-05T08:21:55.126Z,53.2
2018-07-05T08:22:45.175Z,53.3
2018-07-05T08:23:34.964Z,53.3
2018-07-05T08:24:25.645Z,53.3
2018-07-05T08:25:15.386Z,53.4
2018-07-05T08:26:05.455Z,53.4
2018-07-05T08:26:55.557Z,53.5
2018-07-05T08:27:45.612Z,53.6
2018-07-05T08:28:34.788Z,53.6
2018-07-05T08:29:25.520Z,53.7
2018-07-05T08:30:15.550Z,53.7
2018-07-05T08:31:06.139Z,53.8
2018-07-05T08:31:55.897Z,53.8
2018-07-05T08:32:45.221Z,53.9
2018-07-05T08:33:35.757Z,53.9
2018-07-05T08:34:26.372Z,53.9
2018-07-05T08:35:16.214Z,54.1
2018-07-05T08:36:06.042Z,54.1
2018-07-05T08:36:56.290Z,54.1
2018-07-05T08:37:46.934Z,54.2
2018-07-05T08:38:36.421Z,54.3
2018-07-05T08:39:26.777Z,54.3
2018-07-05T08:40:16.317Z,54.3
2018-07-05T08:41:06.907Z,54.4
2018-07-05T08:41:56.705Z,54.4
2018-07-05T08:42:46.795Z,54.5
2018-07-05T08:43:37.087Z,54.6
2018-07-05T08:44:26.637Z,54.6
2018-07-05T08:45:16.680Z,54.6
2018-07-05T08:46:06.803Z,54.7
2018-07-05T08:46:57.120Z,54.8
2018-07-05T08:47:47.450Z,54.8
2018-07-05T08:48:36.961Z,54.9
2018-07-05T08:49:27.554Z,54.9
2018-07-05T08:50:17.070Z,54.9
2018-07-05T08:51:07.406Z,55
2018-07-05T08:51:57.211Z,55.1
2018-07-05T08:52:47.281Z,55.1
2018-07-05T08:53:37.058Z,55.1
2018-07-05T08:54:27.688Z,55.2
2018-07-05T08:55:17.251Z,55.3
2018-07-05T08:56:07.551Z,55.3
2018-07-05T08:56:58.146Z,55.4
2018-07-05T08:57:47.702Z,55.4
2018-07-05T08:58:37.827Z,55.4
2018-07-05T08:59:28.375Z,55.5
2018-07-05T09:00:18.438Z,55.6
2018-07-05T09:01:07.666Z,55.6
2018-07-05T09:01:58.569Z,55.6
2018-07-05T09:02:48.661Z,55.8
2018-07-05T09:03:38.463Z,55.8
2018-07-05T09:04:28.491Z,55.8
2018-07-05T09:05:19.380Z,55.9
2018-07-05T09:06:08.343Z,55.9
2018-07-05T09:06:58.378Z,56
2018-07-05T09:07:48.151Z,56
2018-07-05T09:08:38.263Z,56.1
2018-07-05T09:09:28.653Z,56.1
2018-07-05T09:10:19.116Z,56.2
2018-07-05T09:11:09.026Z,56.2
2018-07-05T09:11:59.172Z,56.3
2018-07-05T09:12:49.391Z,56.3
2018-07-05T09:13:39.212Z,56.4
2018-07-05T09:14:29.242Z,56.4
2018-07-05T09:15:19.364Z,56.5
2018-07-05T09:16:09.710Z,56.5
2018-07-05T09:16:59.275Z,56.6
2018-07-05T09:17:52.920Z,56.6
2018-07-05T09:18:39.886Z,56.7
2018-07-05T09:19:29.405Z,56.8
2018-07-05T09:20:19.569Z,56.8
2018-07-05T09:21:09.524Z,56.8
2018-07-05T09:22:00.130Z,56.9
2018-07-05T09:22:50.268Z,56.9
2018-07-05T09:23:40.718Z,57
2018-07-05T09:24:29.788Z,57.1
2018-07-05T09:25:20.196Z,57.1
2018-07-05T09:26:09.898Z,57.1
2018-07-05T09:27:00.247Z,57.2
2018-07-05T09:27:50.074Z,57.3
2018-07-05T09:28:40.461Z,57.3
2018-07-05T09:29:30.428Z,57.3
2018-07-05T09:30:20.531Z,57.4
2018-07-05T09:31:11.365Z,57.4
2018-07-05T09:32:00.662Z,57.5
2018-07-05T09:32:50.984Z,57.6
2018-07-05T09:33:40.083Z,57.6
2018-07-05T09:34:30.087Z,57.6
2018-07-05T09:35:20.983Z,57.7
2018-07-05T09:37:50.584Z,57.8
2018-07-05T09:38:40.925Z,57.9
2018-07-05T09:39:31.237Z,57.9
2018-07-05T09:40:21.313Z,58
2018-07-05T09:41:11.651Z,58
2018-07-05T09:42:01.740Z,58.1
2018-07-05T09:42:51.230Z,58.1
2018-07-05T09:43:41.854Z,58.2
2018-07-05T09:44:31.333Z,58.2
2018-07-05T09:45:21.696Z,58.3
2018-07-05T09:46:11.498Z,58.3
2018-07-05T09:47:02.842Z,58.4
2018-07-05T09:47:52.187Z,58.4
2018-07-05T09:48:40.950Z,58.5
2018-07-05T09:49:32.023Z,58.5
2018-07-05T09:51:12.431Z,58.6
2018-07-05T09:52:02.214Z,58.7
2018-07-05T09:52:53.634Z,58.7
2018-07-05T09:53:41.795Z,58.8
2018-07-05T09:54:32.392Z,58.8
2018-07-05T09:55:22.215Z,58.9
2018-07-05T09:56:12.802Z,58.9
2018-07-05T09:57:02.913Z,59
2018-07-05T09:57:52.755Z,59
2018-07-05T09:58:42.738Z,59.1
2018-07-05T09:59:32.806Z,59.1
2018-07-05T10:00:23.150Z,59.2
2018-07-05T10:01:13.248Z,59.2
2018-07-05T10:02:02.249Z,59.3
2018-07-05T10:02:53.113Z,59.3
2018-07-05T10:03:44.740Z,59.4
2018-07-05T10:04:33.492Z,59.4
2018-07-05T10:05:23.291Z,59.4
2018-07-05T10:06:13.088Z,59.5
2018-07-05T10:07:03.697Z,59.6
2018-07-05T10:07:53.232Z,59.6
2018-07-05T10:08:43.603Z,59.6
2018-07-05T10:09:33.896Z,59.7
2018-07-05T10:10:23.390Z,59.8
2018-07-05T10:11:13.476Z,59.8
2018-07-05T10:12:03.833Z,59.9
2018-07-05T10:12:53.871Z,59.9
2018-07-05T10:13:46.164Z,59.9
2018-07-05T10:14:34.303Z,60
2018-07-05T10:15:24.100Z,60.1
2018-07-05T10:16:14.135Z,60.1
2018-07-05T10:17:04.564Z,60.2
2018-07-05T10:17:54.585Z,60.2
2018-07-05T10:18:44.605Z,60.3
2018-07-05T10:19:34.933Z,60.3
2018-07-05T10:20:24.736Z,60.4
2018-07-05T10:21:14.531Z,60.4
2018-07-05T10:22:04.049Z,60.4
2018-07-05T10:22:54.989Z,60.5
2018-07-05T10:23:44.755Z,60.6
2018-07-05T10:24:34.498Z,60.6
2018-07-05T10:25:25.160Z,60.6
2018-07-05T10:26:14.064Z,60.7
2018-07-05T10:27:05.957Z,60.7
2018-07-05T10:27:55.054Z,60.8
2018-07-05T10:28:45.109Z,60.8
2018-07-05T10:29:35.490Z,60.9
2018-07-05T10:30:25.003Z,60.9
2018-07-05T10:31:15.300Z,61
2018-07-05T10:32:05.142Z,61.1
2018-07-05T10:32:55.530Z,61.1
2018-07-05T10:33:45.507Z,61.1
2018-07-05T10:34:35.656Z,61.2
2018-07-05T10:35:25.354Z,61.3
2018-07-05T10:36:15.495Z,61.3
2018-07-05T10:37:06.082Z,61.3
2018-07-05T10:37:56.124Z,61.4
2018-07-05T10:38:45.959Z,61.4
2018-07-05T10:39:36.761Z,61.4
2018-07-05T10:40:26.332Z,61.5
2018-07-05T10:41:16.212Z,61.6
2018-07-05T10:42:05.631Z,61.6
2018-07-05T10:42:56.270Z,61.6
2018-07-05T10:43:46.318Z,61.7
2018-07-05T10:44:36.392Z,61.8
2018-07-05T10:45:26.474Z,61.8
2018-07-05T10:46:16.825Z,61.8
2018-07-05T10:47:06.598Z,61.8
2018-07-05T10:47:56.944Z,61.9
2018-07-05T10:48:46.718Z,61.9
2018-07-05T10:49:36.571Z,62
2018-07-05T10:50:26.856Z,62.1
2018-07-05T10:51:17.227Z,62.1
2018-07-05T10:52:06.720Z,62.1
2018-07-05T10:52:56.484Z,62.2
2018-07-05T10:53:46.829Z,62.2
2018-07-05T10:54:37.461Z,62.3
2018-07-05T10:55:27.361Z,62.3
2018-07-05T10:56:17.318Z,62.4
2018-07-05T10:57:07.084Z,62.4
2018-07-05T10:57:57.424Z,62.4
2018-07-05T10:58:47.767Z,62.5
2018-07-05T10:59:37.826Z,62.5
2018-07-05T11:00:27.349Z,62.6
2018-07-05T11:01:17.694Z,62.6
2018-07-05T11:02:07.481Z,62.6
2018-07-05T11:02:58.138Z,62.7
2018-07-05T11:03:48.170Z,62.8
2018-07-05T11:04:37.701Z,62.8
2018-07-05T11:05:27.749Z,62.8
2018-07-05T11:06:18.398Z,62.9
2018-07-05T11:07:08.243Z,62.9
2018-07-05T11:07:58.256Z,62.9
2018-07-05T11:08:48.004Z,63
2018-07-05T11:09:38.075Z,63.1
2018-07-05T11:10:28.770Z,63.1
2018-07-05T11:11:17.949Z,63.1
2018-07-05T11:12:08.575Z,63.2
2018-07-05T11:12:58.365Z,63.2
2018-07-05T11:13:48.707Z,63.3
2018-07-05T11:14:40.218Z,63.3
2018-07-05T11:15:28.270Z,63.3
2018-07-05T11:16:18.650Z,63.4
2018-07-05T11:17:08.972Z,63.4
2018-07-05T11:17:59.292Z,63.4
2018-07-05T11:18:49.095Z,63.5
2018-07-05T11:19:38.873Z,63.5
2018-07-05T11:20:29.561Z,63.6
2018-07-05T11:21:18.465Z,63.6
2018-07-05T11:22:09.654Z,63.6
2018-07-05T11:22:59.142Z,63.7
2018-07-05T11:23:49.550Z,63.7
2018-07-05T11:24:39.556Z,63.8
2018-07-05T11:25:29.622Z,63.8